Time;durP1;ratioP1;P1;durP2;ratioP2;P2;SDS_P1;SDS_P2;PMS_P1;PMS_P2;Temp;Humidity;BMP_temperature;BMP_pressure;BME280_temperature;BME280_humidity;BME280_pressure;Samples;Min_cycle;Max_cycle;Signal;HPM_P1;HPM_P2
2024/01/26 00:00:33;;;;;;;14.10;8.38;;;;;;;6.97;nan;96873.94;2066984;28;20042;-64
2024/01/26 00:01:34;;;;;;;14.43;8.82;;;;;;;6.97;nan;96875.69;2067063;28;20049;-65
2024/01/26 00:02:35;;;;;;;12.52;7.85;;;;;;;6.95;nan;96877.44;2066784;28;20050;-65
2024/01/26 00:03:38;;;;;;;13.27;8.48;;;;;;;6.97;nan;96883.41;2067118;28;20050;-64
2024/01/26 00:04:39;;;;;;;14.93;9.52;;;;;;;6.89;nan;96878.41;2067055;28;20696;-64
2024/01/26 00:05:40;;;;;;;12.50;7.45;;;;;;;6.88;nan;96875.88;2067003;28;20050;-65
2024/01/26 00:06:42;;;;;;;10.75;6.60;;;;;;;6.88;nan;96878.44;2066134;28;20057;-64
2024/01/26 00:07:43;;;;;;;10.80;6.07;;;;;;;6.89;nan;96882.72;2066935;28;20057;-64
2024/01/26 00:08:44;;;;;;;11.68;6.93;;;;;;;6.89;nan;96877.56;2066718;28;20061;-64
2024/01/26 00:09:45;;;;;;;12.07;6.85;;;;;;;6.88;nan;96876.72;2066991;28;20050;-65
2024/01/26 00:10:46;;;;;;;12.85;7.40;;;;;;;6.87;nan;96884.47;2067010;28;20050;-65
2024/01/26 00:11:49;;;;;;;9.77;6.05;;;;;;;6.88;nan;96886.19;2066869;28;20050;-65
2024/01/26 00:12:50;;;;;;;11.38;7.30;;;;;;;6.89;nan;96887.88;2066751;28;20051;-65
2024/01/26 00:13:51;;;;;;;12.18;7.85;;;;;;;6.85;nan;96890.53;2066728;28;20402;-65
2024/01/26 00:14:53;;;;;;;12.45;7.82;;;;;;;6.84;nan;96894.00;2066406;28;20108;-65
2024/01/26 00:15:54;;;;;;;14.27;8.15;;;;;;;6.80;nan;96889.75;2066044;28;20395;-66
2024/01/26 00:16:55;;;;;;;13.68;8.50;;;;;;;6.78;nan;96888.91;2066398;28;20058;-65
2024/01/26 00:17:57;;;;;;;11.38;6.82;;;;;;;6.74;nan;96889.03;2066715;28;20058;-65
2024/01/26 00:18:58;;;;;;;8.23;5.05;;;;;;;6.72;nan;96877.88;2065824;28;20411;-65
2024/01/26 00:19:59;;;;;;;11.05;6.65;;;;;;;6.75;nan;96888.97;2066839;28;20054;-64
2024/01/26 00:21:00;;;;;;;10.20;5.28;;;;;;;6.74;nan;96889.88;2066584;28;20066;-65
2024/01/26 00:22:01;;;;;;;10.65;6.15;;;;;;;6.75;nan;96886.41;2058316;28;20506;-65
2024/01/26 00:23:02;;;;;;;7.20;3.97;;;;;;;6.74;nan;96882.13;2058354;28;20043;-65
2024/01/26 00:24:04;;;;;;;8.18;5.22;;;;;;;6.74;nan;96874.38;2065997;28;20379;-65
2024/01/26 00:25:05;;;;;;;8.20;4.50;;;;;;;6.71;nan;96869.28;2066911;28;20065;-64
2024/01/26 00:26:06;;;;;;;9.95;5.38;;;;;;;6.74;nan;96881.28;2067514;28;20050;-64
2024/01/26 00:27:08;;;;;;;8.13;4.85;;;;;;;6.78;nan;96875.16;2067309;28;20065;-63
2024/01/26 00:28:09;;;;;;;8.77;4.50;;;;;;;6.77;nan;96870.91;2067578;28;20054;-64
2024/01/26 00:29:10;;;;;;;6.18;3.58;;;;;;;6.77;nan;96883.81;2066129;28;20058;-64
2024/01/26 00:30:11;;;;;;;7.55;4.45;;;;;;;6.78;nan;96877.75;2066279;28;20062;-64
2024/01/26 00:31:18;;;;;;;8.75;4.55;;;;;;;6.77;nan;96876.06;2066936;28;20041;-64
2024/01/26 00:32:19;;;;;;;7.97;4.30;;;;;;;6.78;nan;96875.16;2065885;28;20053;-64
2024/01/26 00:33:20;;;;;;;7.85;4.53;;;;;;;6.77;nan;96874.31;2066552;28;20379;-64
2024/01/26 00:34:22;;;;;;;7.72;4.20;;;;;;;6.77;nan;96874.31;2066854;28;20042;-65
2024/01/26 00:35:23;;;;;;;8.50;4.95;;;;;;;6.76;nan;96872.63;2066931;28;20041;-65
2024/01/26 00:36:24;;;;;;;6.55;4.13;;;;;;;6.70;nan;96866.72;2066897;28;20042;-65
2024/01/26 00:37:25;;;;;;;6.07;4.20;;;;;;;6.74;nan;96869.22;2066593;28;20505;-64
2024/01/26 00:38:26;;;;;;;6.80;4.03;;;;;;;6.74;nan;96866.63;2066129;28;20053;-64
2024/01/26 00:39:27;;;;;;;7.40;4.30;;;;;;;6.74;nan;96869.22;2066901;28;20385;-64
2024/01/26 00:40:28;;;;;;;7.63;4.53;;;;;;;6.73;nan;96876.97;2066172;28;20402;-64
2024/01/26 00:41:31;;;;;;;7.70;4.20;;;;;;;6.71;nan;96869.28;2066663;28;20038;-64
2024/01/26 00:42:32;;;;;;;7.13;4.75;;;;;;;6.69;nan;96871.03;2066909;28;20050;-65
2024/01/26 00:43:33;;;;;;;7.50;4.53;;;;;;;6.61;nan;96865.16;2066690;28;20038;-64
2024/01/26 00:44:34;;;;;;;7.70;4.35;;;;;;;6.62;nan;96859.09;2066980;28;20046;-64
2024/01/26 00:45:35;;;;;;;7.50;4.93;;;;;;;6.60;nan;96866.88;2066751;28;20375;-64
2024/01/26 00:46:36;;;;;;;8.43;4.28;;;;;;;6.59;nan;96861.75;2066722;28;20038;-64
2024/01/26 00:47:37;;;;;;;7.68;4.53;;;;;;;6.58;nan;96858.31;2066454;28;20491;-64
2024/01/26 00:48:39;;;;;;;7.80;5.20;;;;;;;6.57;nan;96860.91;2058086;28;20065;-64
2024/01/26 00:49:40;;;;;;;7.88;5.05;;;;;;;6.56;nan;96865.22;2058100;28;20061;-64
2024/01/26 00:50:41;;;;;;;7.55;4.20;;;;;;;6.55;nan;96860.09;2066415;28;20379;-64
2024/01/26 00:51:42;;;;;;;7.50;4.50;;;;;;;6.56;nan;96860.06;2066406;28;20050;-63
2024/01/26 00:52:43;;;;;;;7.60;4.60;;;;;;;6.57;nan;96850.59;2066920;28;20054;-64
2024/01/26 00:53:44;;;;;;;8.38;5.10;;;;;;;6.58;nan;96860.91;2066683;28;20065;-65
2024/01/26 00:54:45;;;;;;;8.77;5.28;;;;;;;6.58;nan;96854.88;2065900;28;20054;-65
2024/01/26 00:55:46;;;;;;;9.68;5.22;;;;;;;6.56;nan;96860.06;2066631;28;20049;-65
2024/01/26 00:56:47;;;;;;;6.75;4.70;;;;;;;6.56;nan;96856.63;2066475;28;20057;-64
2024/01/26 00:57:49;;;;;;;9.77;4.70;;;;;;;6.55;nan;96860.09;2066357;28;20054;-64
2024/01/26 00:58:50;;;;;;;9.70;5.32;;;;;;;6.55;nan;96863.53;2066558;28;20074;-64
2024/01/26 00:59:51;;;;;;;7.63;4.72;;;;;;;6.56;nan;96861.81;2065753;28;20406;-64
2024/01/26 01:00:52;;;;;;;9.00;5.63;;;;;;;6.56;nan;96859.22;2066693;28;20043;-65
2024/01/26 01:01:53;;;;;;;6.95;4.45;;;;;;;6.54;nan;96859.22;2066109;28;20054;-65
2024/01/26 01:02:56;;;;;;;8.15;5.32;;;;;;;6.56;nan;96864.38;2066591;28;20046;-65
2024/01/26 01:03:57;;;;;;;10.90;6.35;;;;;;;6.56;nan;96864.38;2066690;28;20533;-64
2024/01/26 01:04:58;;;;;;;9.07;5.78;;;;;;;6.53;nan;96861.84;2065691;28;20054;-65
2024/01/26 01:05:59;;;;;;;9.93;6.40;;;;;;;6.49;nan;96858.47;2066229;28;20412;-64
2024/01/26 01:07:00;;;;;;;9.82;6.50;;;;;;;6.51;nan;96868.78;2065848;28;20053;-64
2024/01/26 01:08:01;;;;;;;9.05;5.95;;;;;;;6.48;nan;96858.50;2066169;28;20061;-64
2024/01/26 01:09:02;;;;;;;8.80;6.32;;;;;;;6.48;nan;96858.50;2057786;28;20055;-64
2024/01/26 01:10:04;;;;;;;11.82;6.68;;;;;;;6.48;nan;96863.66;2057993;28;20051;-65
2024/01/26 01:11:06;;;;;;;9.75;6.72;;;;;;;6.46;nan;96868.00;2066123;28;20065;-65
2024/01/26 01:12:07;;;;;;;10.63;6.50;;;;;;;6.44;nan;96872.31;2066299;28;20053;-64
2024/01/26 01:13:10;;;;;;;12.70;6.95;;;;;;;6.38;nan;96870.69;2066025;28;20422;-65
2024/01/26 01:14:12;;;;;;;11.05;7.32;;;;;;;6.39;nan;96862.94;2066497;28;20045;-64
2024/01/26 01:15:13;;;;;;;10.45;6.60;;;;;;;6.43;nan;96868.91;2065859;28;20427;-64
2024/01/26 01:16:15;;;;;;;12.48;6.85;;;;;;;6.44;nan;96874.91;2066507;28;20050;-65
2024/01/26 01:17:16;;;;;;;12.25;7.30;;;;;;;6.42;nan;96872.38;2066606;28;20062;-64
2024/01/26 01:18:17;;;;;;;10.57;6.80;;;;;;;6.40;nan;96864.63;2066467;28;20042;-65
2024/01/26 01:19:18;;;;;;;12.45;7.50;;;;;;;6.47;nan;96877.44;2066569;28;20474;-64
2024/01/26 01:20:20;;;;;;;11.52;7.05;;;;;;;6.43;nan;96876.63;2066535;28;20046;-64
2024/01/26 01:21:21;;;;;;;10.32;6.65;;;;;;;6.42;nan;96876.69;2057423;28;20106;-64
2024/01/26 01:22:22;;;;;;;13.10;7.63;;;;;;;6.40;nan;96874.97;2057117;28;20062;-64
2024/01/26 01:23:23;;;;;;;12.15;7.15;;;;;;;6.42;nan;96876.69;2065820;28;20054;-65
2024/01/26 01:24:25;;;;;;;13.23;7.05;;;;;;;6.43;nan;96880.94;2066077;28;20487;-64
2024/01/26 01:25:26;;;;;;;14.07;8.73;;;;;;;6.43;nan;96879.22;2066505;28;20034;-64
2024/01/26 01:26:27;;;;;;;11.43;7.70;;;;;;;6.43;nan;96884.38;2066599;28;20038;-64
2024/01/26 01:27:31;;;;;;;12.52;7.38;;;;;;;6.44;nan;96880.91;2066485;28;20045;-64
2024/01/26 01:28:32;;;;;;;12.35;7.65;;;;;;;6.45;nan;96884.38;2066143;28;20050;-65
2024/01/26 01:29:33;;;;;;;13.75;8.48;;;;;;;6.46;nan;96881.75;2066512;28;20042;-64
2024/01/26 01:30:34;;;;;;;14.45;8.02;;;;;;;6.48;nan;96885.16;2065413;28;20050;-64
2024/01/26 01:31:35;;;;;;;12.05;7.57;;;;;;;6.47;nan;96883.47;2066436;28;20402;-64
2024/01/26 01:32:36;;;;;;;13.77;7.90;;;;;;;6.48;nan;96876.56;2066509;28;20057;-63
2024/01/26 01:33:37;;;;;;;16.70;9.20;;;;;;;6.49;nan;96873.94;2066121;28;20061;-64
2024/01/26 01:34:39;;;;;;;15.50;9.45;;;;;;;6.48;nan;96881.72;2065852;28;20058;-64
2024/01/26 01:35:40;;;;;;;15.27;9.70;;;;;;;6.47;nan;96877.44;2066418;28;20046;-63
2024/01/26 01:36:41;;;;;;;15.70;8.77;;;;;;;6.48;nan;96876.56;2066327;28;20058;-63
2024/01/26 01:37:42;;;;;;;14.35;7.80;;;;;;;6.47;nan;96883.47;2065722;28;20509;-63
2024/01/26 01:38:44;;;;;;;17.40;9.10;;;;;;;6.47;nan;96880.88;2066046;28;20049;-64
2024/01/26 01:39:45;;;;;;;16.80;9.95;;;;;;;6.44;nan;96872.31;2065827;28;20050;-64
2024/01/26 01:40:46;;;;;;;15.40;8.88;;;;;;;6.47;nan;96878.31;2066276;28;20058;-65
2024/01/26 01:41:48;;;;;;;15.93;9.35;;;;;;;6.50;nan;96877.41;2065834;28;20061;-65
2024/01/26 01:42:49;;;;;;;16.33;9.70;;;;;;;6.49;nan;96879.09;2066345;28;20070;-65
2024/01/26 01:43:54;;;;;;;16.65;10.25;;;;;;;6.49;nan;96879.09;2066259;28;20398;-64
2024/01/26 01:44:55;;;;;;;15.80;9.52;;;;;;;6.48;nan;96874.00;2066356;28;20046;-63
2024/01/26 01:45:56;;;;;;;17.38;10.55;;;;;;;6.47;nan;96874.84;2050023;29;20050;-64
2024/01/26 01:46:57;;;;;;;16.65;9.55;;;;;;;6.44;nan;96868.00;2049876;29;20399;-63
2024/01/26 01:47:58;;;;;;;17.00;8.70;;;;;;;6.46;nan;96868.84;2066274;28;20061;-63
2024/01/26 01:48:59;;;;;;;17.48;10.48;;;;;;;6.49;nan;96873.09;2066361;28;20053;-65
2024/01/26 01:50:00;;;;;;;16.73;10.20;;;;;;;6.46;nan;96862.84;2065199;28;20054;-64
2024/01/26 01:51:01;;;;;;;18.50;10.40;;;;;;;6.48;nan;96861.94;2065640;28;20050;-63
2024/01/26 01:52:11;;;;;;;19.70;11.40;;;;;;;6.49;nan;96860.19;2066233;28;20407;-64
2024/01/26 01:53:12;;;;;;;17.10;10.25;;;;;;;6.49;nan;96857.63;2057070;28;20065;-63
2024/01/26 01:54:14;;;;;;;17.88;9.65;;;;;;;6.46;nan;96857.66;2057233;28;20526;-63
2024/01/26 01:55:15;;;;;;;18.67;10.60;;;;;;;6.47;nan;96865.41;2057599;28;20534;-64
2024/01/26 01:56:17;;;;;;;22.17;11.80;;;;;;;6.48;nan;96866.25;2057702;28;20062;-64
2024/01/26 01:57:19;;;;;;;19.08;10.55;;;;;;;6.46;nan;96861.09;2057108;28;20054;-63
2024/01/26 01:58:20;;;;;;;21.50;11.68;;;;;;;6.48;nan;96858.50;2049166;28;20062;-63
2024/01/26 01:59:21;;;;;;;17.45;9.77;;;;;;;6.45;nan;96858.56;2049565;28;20050;-63
2024/01/26 02:00:23;;;;;;;18.52;10.38;;;;;;;6.47;nan;96857.66;2057594;28;20053;-63
2024/01/26 02:01:25;;;;;;;17.90;10.40;;;;;;;6.49;nan;96862.78;2066188;28;20410;-64
2024/01/26 02:02:26;;;;;;;18.60;10.65;;;;;;;6.47;nan;96862.81;2066007;28;20086;-64
2024/01/26 02:03:28;;;;;;;16.50;9.52;;;;;;;6.45;nan;96871.47;2057094;28;20418;-64
2024/01/26 02:04:30;;;;;;;18.33;10.55;;;;;;;6.50;nan;96867.06;2057251;28;20058;-64
2024/01/26 02:05:31;;;;;;;15.48;9.18;;;;;;;6.51;nan;96867.03;2065210;28;20065;-64
2024/01/26 02:06:33;;;;;;;17.58;10.05;;;;;;;6.51;nan;96871.34;2065480;28;20077;-63
2024/01/26 02:07:34;;;;;;;18.65;10.93;;;;;;;6.53;nan;96864.44;2064984;28;20065;-63
2024/01/26 02:08:35;;;;;;;17.55;10.65;;;;;;;6.53;nan;96867.88;2065664;28;20130;-64
2024/01/26 02:09:36;;;;;;;20.10;12.00;;;;;;;6.55;nan;96867.84;2065004;28;20482;-64
2024/01/26 02:10:37;;;;;;;18.15;10.45;;;;;;;6.53;nan;96870.44;2065416;28;20058;-64
2024/01/26 02:11:38;;;;;;;18.25;11.15;;;;;;;6.56;nan;96869.53;2066061;28;20050;-64
2024/01/26 02:12:39;;;;;;;19.33;10.73;;;;;;;6.55;nan;96866.13;2065921;28;20488;-64
2024/01/26 02:13:40;;;;;;;20.23;11.68;;;;;;;6.59;nan;96870.34;2066280;28;20046;-63
2024/01/26 02:14:41;;;;;;;20.23;10.73;;;;;;;6.57;nan;96871.22;2066242;28;20046;-64
2024/01/26 02:15:42;;;;;;;18.45;10.77;;;;;;;6.57;nan;96876.41;2065333;28;20054;-64
2024/01/26 02:16:52;;;;;;;20.13;11.02;;;;;;;6.57;nan;96871.22;2065686;28;20054;-64
2024/01/26 02:17:53;;;;;;;17.90;10.35;;;;;;;6.57;nan;96876.41;2066162;28;20055;-64
2024/01/26 02:18:54;;;;;;;17.27;10.07;;;;;;;6.56;nan;96872.13;2064855;28;20054;-62
2024/01/26 02:19:55;;;;;;;18.25;10.60;;;;;;;6.56;nan;96872.97;2065692;28;20479;-63
2024/01/26 02:20:57;;;;;;;17.85;11.18;;;;;;;6.57;nan;96868.66;2065521;28;20057;-63
2024/01/26 02:21:58;;;;;;;18.75;12.07;;;;;;;6.56;nan;96872.13;2066158;28;20061;-64
2024/01/26 02:22:59;;;;;;;18.13;11.27;;;;;;;6.54;nan;96866.13;2066217;28;20422;-64
2024/01/26 02:24:00;;;;;;;17.13;9.23;;;;;;;6.55;nan;96862.69;2066193;28;20049;-64
2024/01/26 02:25:01;;;;;;;19.65;11.52;;;;;;;6.54;nan;96872.13;2066042;28;20046;-63
2024/01/26 02:26:02;;;;;;;20.58;10.98;;;;;;;6.55;nan;96868.69;2066149;28;20505;-64
2024/01/26 02:27:04;;;;;;;16.73;9.60;;;;;;;6.55;nan;96865.28;2065878;28;20050;-63
2024/01/26 02:28:05;;;;;;;19.55;11.00;;;;;;;6.56;nan;96866.97;2065925;28;20050;-64
2024/01/26 02:29:06;;;;;;;21.52;12.25;;;;;;;6.56;nan;96866.97;2065308;28;20061;-63
2024/01/26 02:30:07;;;;;;;19.05;10.98;;;;;;;6.57;nan;96871.22;2066191;28;20054;-64
2024/01/26 02:31:08;;;;;;;17.63;10.20;;;;;;;6.55;nan;96867.84;2065793;28;20057;-64
2024/01/26 02:32:10;;;;;;;18.05;9.73;;;;;;;6.53;nan;96860.13;2066046;28;20410;-63
2024/01/26 02:33:11;;;;;;;16.05;9.57;;;;;;;6.55;nan;96862.69;2064927;28;20069;-64
2024/01/26 02:34:13;;;;;;;16.80;9.38;;;;;;;6.55;nan;96868.69;2065590;28;20352;-64
2024/01/26 02:35:14;;;;;;;18.13;10.13;;;;;;;6.55;nan;96865.28;2065932;28;20592;-63
2024/01/26 02:36:15;;;;;;;15.48;9.38;;;;;;;6.52;nan;96860.13;2065527;28;20058;-64
2024/01/26 02:37:16;;;;;;;19.33;10.55;;;;;;;6.58;nan;96871.22;2057186;28;20046;-63
2024/01/26 02:38:17;;;;;;;15.90;8.77;;;;;;;6.60;nan;96866.88;2056926;28;20440;-63
2024/01/26 02:39:18;;;;;;;15.77;9.07;;;;;;;6.58;nan;96862.63;2065867;28;20529;-64
2024/01/26 02:40:19;;;;;;;14.13;8.43;;;;;;;6.61;nan;96867.75;2065901;28;20041;-63
2024/01/26 02:41:21;;;;;;;16.85;10.15;;;;;;;6.64;nan;96867.69;2065853;28;20046;-64
2024/01/26 02:42:22;;;;;;;16.30;10.38;;;;;;;6.66;nan;96871.09;2064823;28;20058;-63
2024/01/26 02:43:23;;;;;;;14.13;8.60;;;;;;;6.65;nan;96876.25;2065366;28;20054;-64
2024/01/26 02:44:24;;;;;;;16.80;10.05;;;;;;;6.66;nan;96871.09;2065436;28;20061;-64
2024/01/26 02:45:25;;;;;;;15.27;9.27;;;;;;;6.66;nan;96875.41;2065313;28;20053;-63
2024/01/26 02:46:27;;;;;;;17.13;10.45;;;;;;;6.67;nan;96880.53;2065879;28;20486;-63
2024/01/26 02:47:28;;;;;;;15.00;9.48;;;;;;;6.68;nan;96874.47;2065647;28;20057;-63
2024/01/26 02:48:29;;;;;;;16.27;9.68;;;;;;;6.68;nan;96873.63;2065810;28;20550;-63
2024/01/26 02:49:31;;;;;;;17.67;9.55;;;;;;;6.68;nan;96878.78;2065815;28;20038;-63
2024/01/26 02:50:33;;;;;;;17.13;9.88;;;;;;;6.69;nan;96871.03;2065834;28;20057;-63
2024/01/26 02:51:34;;;;;;;15.75;9.23;;;;;;;6.65;nan;96866.78;2065824;28;20042;-62
2024/01/26 02:52:36;;;;;;;17.02;9.35;;;;;;;6.72;nan;96875.28;2066001;28;20497;-64
2024/01/26 02:53:39;;;;;;;16.00;10.02;;;;;;;6.72;nan;96862.38;2065740;28;20054;-63
2024/01/26 02:54:40;;;;;;;15.02;9.10;;;;;;;6.77;nan;96874.31;2065818;28;20054;-63
2024/01/26 02:55:41;;;;;;;16.45;9.48;;;;;;;6.80;nan;96878.56;2065752;28;20406;-63
2024/01/26 02:56:42;;;;;;;13.73;8.65;;;;;;;6.81;nan;96870.78;2065643;28;20054;-63
2024/01/26 02:57:43;;;;;;;13.20;7.90;;;;;;;6.83;nan;96875.94;2064960;28;20073;-62
2024/01/26 02:58:44;;;;;;;13.35;9.10;;;;;;;6.87;nan;96876.72;2065761;28;20049;-63
2024/01/26 02:59:46;;;;;;;14.07;8.25;;;;;;;6.87;nan;96872.44;2065620;28;20050;-63
2024/01/26 03:00:47;;;;;;;15.07;8.27;;;;;;;6.89;nan;96873.22;2057278;28;20519;-63
2024/01/26 03:01:48;;;;;;;12.75;8.25;;;;;;;6.92;nan;96882.66;2057187;28;20054;-63
2024/01/26 03:02:49;;;;;;;14.00;8.00;;;;;;;6.92;nan;96878.34;2064788;28;20054;-62
2024/01/26 03:03:50;;;;;;;12.55;7.80;;;;;;;6.94;nan;96888.66;2065347;28;20065;-62
2024/01/26 03:04:51;;;;;;;10.20;5.78;;;;;;;6.96;nan;96889.47;2065911;28;20057;-63
2024/01/26 03:05:52;;;;;;;12.63;7.25;;;;;;;6.97;nan;96875.69;2065664;28;20502;-63
2024/01/26 03:06:54;;;;;;;11.48;7.05;;;;;;;6.96;nan;96884.31;2065214;28;20062;-63
2024/01/26 03:07:55;;;;;;;13.38;7.70;;;;;;;6.96;nan;96889.47;2065767;28;20054;-64
2024/01/26 03:08:56;;;;;;;12.98;7.60;;;;;;;6.94;nan;96886.91;2065599;28;20050;-64
2024/01/26 03:09:57;;;;;;;12.88;6.93;;;;;;;6.92;nan;96882.66;2065774;28;20053;-65
2024/01/26 03:10:59;;;;;;;13.23;7.50;;;;;;;6.91;nan;96892.13;2065602;28;20062;-66
2024/01/26 03:12:00;;;;;;;12.57;6.68;;;;;;;6.89;nan;96893.88;2056229;28;20427;-65
2024/01/26 03:13:01;;;;;;;10.68;6.10;;;;;;;6.89;nan;96895.63;2056820;28;20055;-65
2024/01/26 03:14:02;;;;;;;12.05;7.38;;;;;;;6.88;nan;96892.19;2065343;28;20059;-65
2024/01/26 03:15:03;;;;;;;11.73;6.80;;;;;;;6.88;nan;96891.34;2064909;28;20501;-65
2024/01/26 03:16:05;;;;;;;10.90;5.72;;;;;;;6.84;nan;96894.00;2065498;28;20049;-64
2024/01/26 03:17:06;;;;;;;7.65;4.47;;;;;;;6.85;nan;96885.34;2064953;28;20482;-64
2024/01/26 03:18:07;;;;;;;10.23;5.43;;;;;;;6.88;nan;96901.69;2065754;28;20047;-65
2024/01/26 03:19:08;;;;;;;10.77;6.38;;;;;;;6.88;nan;96901.69;2065148;28;20425;-64
2024/01/26 03:20:10;;;;;;;10.43;6.00;;;;;;;6.87;nan;96900.84;2065688;28;20053;-64
2024/01/26 03:21:11;;;;;;;11.07;6.85;;;;;;;6.89;nan;96900.78;2065594;28;20042;-64
2024/01/26 03:22:12;;;;;;;10.02;5.90;;;;;;;6.91;nan;96911.94;2065671;28;20396;-64
2024/01/26 03:23:13;;;;;;;9.38;5.70;;;;;;;6.89;nan;96919.72;2056570;28;20054;-65
2024/01/26 03:24:15;;;;;;;9.73;5.47;;;;;;;6.89;nan;96914.53;2056982;28;20047;-64
2024/01/26 03:25:16;;;;;;;9.88;6.25;;;;;;;6.89;nan;96909.38;2065697;28;20053;-65
2024/01/26 03:26:17;;;;;;;10.00;5.78;;;;;;;6.85;nan;96905.16;2065722;28;20042;-64
2024/01/26 03:27:18;;;;;;;8.38;4.90;;;;;;;6.88;nan;96912.00;2064829;28;20050;-64
2024/01/26 03:28:19;;;;;;;8.90;4.80;;;;;;;6.87;nan;96908.59;2065230;28;20479;-64
2024/01/26 03:29:20;;;;;;;8.70;4.80;;;;;;;6.84;nan;96911.19;2065714;28;20050;-64
2024/01/26 03:30:22;;;;;;;8.60;5.63;;;;;;;6.87;nan;96913.75;2065031;28;20455;-64
2024/01/26 03:31:23;;;;;;;8.07;4.70;;;;;;;6.86;nan;96909.44;2065533;28;20046;-64
2024/01/26 03:32:25;;;;;;;9.00;5.00;;;;;;;6.85;nan;96913.75;2064719;28;20422;-63
2024/01/26 03:33:26;;;;;;;9.05;5.13;;;;;;;6.82;nan;96918.97;2065542;28;20050;-64
2024/01/26 03:34:27;;;;;;;10.70;4.07;;;;;;;6.85;nan;96916.34;2065812;28;20407;-64
2024/01/26 03:35:28;;;;;;;8.50;5.07;;;;;;;6.86;nan;96922.34;2065596;28;20156;-64
2024/01/26 03:36:29;;;;;;;10.10;5.57;;;;;;;6.84;nan;96922.41;2064859;28;20050;-65
2024/01/26 03:37:30;;;;;;;8.30;4.68;;;;;;;6.83;nan;96920.69;2065278;28;20062;-65
2024/01/26 03:38:31;;;;;;;10.45;5.22;;;;;;;6.83;nan;96925.84;2064970;28;20046;-63
2024/01/26 03:39:32;;;;;;;8.27;5.03;;;;;;;6.82;nan;96923.31;2065205;28;20474;-64
2024/01/26 03:40:34;;;;;;;8.13;4.88;;;;;;;6.81;nan;96924.16;2064949;28;20050;-65
2024/01/26 03:41:39;;;;;;;8.23;4.75;;;;;;;6.80;nan;96928.47;2064206;28;20414;-64
2024/01/26 03:42:41;;;;;;;10.32;6.10;;;;;;;6.80;nan;96914.72;2056566;28;20054;-64
2024/01/26 03:43:42;;;;;;;8.82;5.18;;;;;;;6.80;nan;96925.91;2056862;28;20047;-66
2024/01/26 03:44:44;;;;;;;7.30;4.53;;;;;;;6.80;nan;96918.16;2065295;28;20513;-64
2024/01/26 03:45:45;;;;;;;8.60;5.20;;;;;;;6.79;nan;96921.63;2065560;28;20053;-64
2024/01/26 03:46:46;;;;;;;8.88;4.68;;;;;;;6.81;nan;96919.00;2065101;28;20392;-63
2024/01/26 03:47:47;;;;;;;7.40;4.63;;;;;;;6.82;nan;96920.72;2065591;28;20050;-64
2024/01/26 03:48:48;;;;;;;9.07;5.30;;;;;;;6.81;nan;96922.41;2065530;28;20042;-64
2024/01/26 03:49:49;;;;;;;9.45;5.10;;;;;;;6.81;nan;96925.00;2065668;28;20038;-64
2024/01/26 03:50:50;;;;;;;5.47;3.22;;;;;;;6.79;nan;96924.22;2065548;28;20042;-64
2024/01/26 03:51:51;;;;;;;5.47;2.85;;;;;;;6.80;nan;96928.47;2065201;28;20061;-63
2024/01/26 03:52:53;;;;;;;7.35;4.65;;;;;;;6.80;nan;96928.47;2065449;28;20398;-64
2024/01/26 03:53:54;;;;;;;8.23;4.40;;;;;;;6.79;nan;96928.50;2065452;28;20402;-63
2024/01/26 03:54:55;;;;;;;8.02;4.55;;;;;;;6.80;nan;96933.66;2065492;28;20049;-63
2024/01/26 03:55:56;;;;;;;6.03;3.90;;;;;;;6.80;nan;96930.22;2065665;28;20402;-64
2024/01/26 03:56:57;;;;;;;8.15;4.20;;;;;;;6.80;nan;96930.22;2065496;28;20046;-64
2024/01/26 03:57:58;;;;;;;7.72;4.32;;;;;;;6.81;nan;96939.66;2065396;28;20424;-64
2024/01/26 03:58:59;;;;;;;6.78;4.22;;;;;;;6.79;nan;96934.53;2065481;28;20057;-63
2024/01/26 04:00:02;;;;;;;6.03;3.75;;;;;;;6.76;nan;96923.38;2065724;28;20050;-64
2024/01/26 04:01:13;;;;;;;7.10;3.85;;;;;;;6.79;nan;96933.66;2064952;28;20065;-64
2024/01/26 04:02:14;;;;;;;6.70;4.22;;;;;;;6.78;nan;96934.53;2065216;28;20376;-65
2024/01/26 04:03:16;;;;;;;6.80;3.90;;;;;;;6.74;nan;96931.19;2065461;28;20482;-64
2024/01/26 04:04:17;;;;;;;6.25;3.45;;;;;;;6.77;nan;96930.28;2065506;28;20045;-64
2024/01/26 04:05:18;;;;;;;6.80;4.10;;;;;;;6.76;nan;96934.59;2065582;28;20038;-64
2024/01/26 04:06:19;;;;;;;7.07;4.03;;;;;;;6.77;nan;96941.44;2065392;28;20043;-64
2024/01/26 04:07:20;;;;;;;5.50;3.25;;;;;;;6.76;nan;96938.88;2065356;28;20050;-64
2024/01/26 04:08:21;;;;;;;5.47;3.20;;;;;;;6.75;nan;96939.75;2065505;28;20054;-63
2024/01/26 04:09:22;;;;;;;6.47;3.28;;;;;;;6.73;nan;96936.34;2065442;28;20044;-64
2024/01/26 04:10:23;;;;;;;6.00;3.88;;;;;;;6.75;nan;96934.59;2065504;28;20398;-64
2024/01/26 04:11:24;;;;;;;5.28;3.00;;;;;;;6.76;nan;96941.47;2065136;28;20041;-63
2024/01/26 04:12:26;;;;;;;6.40;3.80;;;;;;;6.78;nan;96942.28;2065249;28;20053;-64
2024/01/26 04:13:27;;;;;;;4.38;2.80;;;;;;;6.76;nan;96932.00;2065369;28;20073;-63
2024/01/26 04:14:28;;;;;;;5.00;3.33;;;;;;;6.77;nan;96940.59;2065359;28;20367;-64
2024/01/26 04:15:29;;;;;;;5.05;2.92;;;;;;;6.77;nan;96941.44;2065368;28;20049;-63
2024/01/26 04:16:30;;;;;;;4.60;2.80;;;;;;;6.79;nan;96938.81;2065078;28;20058;-62
2024/01/26 04:17:31;;;;;;;6.22;2.95;;;;;;;6.79;nan;96943.97;2065465;28;20046;-64
2024/01/26 04:18:32;;;;;;;5.25;3.05;;;;;;;6.78;nan;96935.38;2065323;28;20406;-64
2024/01/26 04:19:33;;;;;;;5.20;2.85;;;;;;;6.77;nan;96941.44;2065535;28;20049;-64
2024/01/26 04:20:34;;;;;;;5.35;2.65;;;;;;;6.75;nan;96940.59;2065200;28;20050;-64
2024/01/26 04:21:35;;;;;;;4.82;2.80;;;;;;;6.75;nan;96938.03;2065164;28;20051;-63
2024/01/26 04:22:36;;;;;;;5.03;3.00;;;;;;;6.73;nan;96937.19;2065719;28;20058;-63
2024/01/26 04:23:38;;;;;;;5.57;2.67;;;;;;;6.69;nan;96929.56;2065573;28;20050;-63
2024/01/26 04:24:39;;;;;;;5.00;3.10;;;;;;;6.73;nan;96936.34;2065558;28;20046;-63
2024/01/26 04:25:40;;;;;;;5.78;3.00;;;;;;;6.72;nan;96935.50;2065544;28;20073;-63
2024/01/26 04:26:41;;;;;;;4.32;2.20;;;;;;;6.71;nan;96931.22;2065146;28;20042;-63
2024/01/26 04:27:42;;;;;;;5.38;2.50;;;;;;;6.71;nan;96931.22;2065042;28;20035;-62
2024/01/26 04:28:43;;;;;;;3.70;2.30;;;;;;;6.70;nan;96937.25;2065313;28;20050;-62
2024/01/26 04:29:44;;;;;;;2.55;1.50;;;;;;;6.67;nan;96931.31;2064861;28;20046;-62
2024/01/26 04:30:45;;;;;;;4.32;2.55;;;;;;;6.67;nan;96934.72;2064641;28;20073;-62
2024/01/26 04:31:46;;;;;;;4.78;2.70;;;;;;;6.66;nan;96927.88;2066148;28;20389;-62
2024/01/26 04:32:48;;;;;;;5.90;3.20;;;;;;;6.67;nan;96926.97;2066128;28;20046;-62
2024/01/26 04:33:49;;;;;;;6.28;2.63;;;;;;;6.68;nan;96928.69;2065918;28;20053;-62
2024/01/26 04:34:50;;;;;;;5.18;2.88;;;;;;;6.67;nan;96928.72;2056606;28;20490;-61
2024/01/26 04:35:51;;;;;;;6.45;3.65;;;;;;;6.65;nan;96926.16;2055992;28;20062;-62
2024/01/26 04:36:52;;;;;;;6.30;3.75;;;;;;;6.63;nan;96928.78;2065155;28;20402;-62
2024/01/26 04:37:53;;;;;;;5.78;3.30;;;;;;;6.62;nan;96928.78;2064967;28;20042;-62
2024/01/26 04:38:55;;;;;;;6.00;3.45;;;;;;;6.61;nan;96935.69;2064898;28;20394;-63
2024/01/26 04:39:57;;;;;;;5.57;3.58;;;;;;;6.62;nan;96936.53;2065218;28;20054;-62
2024/01/26 04:40:58;;;;;;;8.40;4.15;;;;;;;6.60;nan;96931.41;2056239;28;20062;-63
2024/01/26 04:41:59;;;;;;;7.15;4.20;;;;;;;6.61;nan;96937.41;2056146;28;20099;-63
2024/01/26 04:43:00;;;;;;;6.63;4.05;;;;;;;6.61;nan;96929.69;2066264;28;20051;-62
2024/01/26 04:44:01;;;;;;;8.10;4.38;;;;;;;6.61;nan;96935.69;2066708;28;20042;-63
2024/01/26 04:45:02;;;;;;;6.35;4.18;;;;;;;6.62;nan;96939.13;2066406;28;20050;-62
2024/01/26 04:46:03;;;;;;;6.80;4.47;;;;;;;6.62;nan;96931.38;2065465;28;20050;-62
2024/01/26 04:47:05;;;;;;;8.45;4.65;;;;;;;6.61;nan;96940.00;2065909;28;20065;-62
2024/01/26 04:48:06;;;;;;;6.05;4.03;;;;;;;6.61;nan;96940.84;2065800;28;20410;-63
2024/01/26 04:49:07;;;;;;;8.50;4.90;;;;;;;6.60;nan;96939.16;2066650;28;20042;-63
2024/01/26 04:50:09;;;;;;;6.97;4.20;;;;;;;6.60;nan;96938.28;2066117;28;20479;-62
2024/01/26 04:51:10;;;;;;;8.70;4.82;;;;;;;6.62;nan;96945.13;2065853;28;20057;-62
2024/01/26 04:52:11;;;;;;;9.43;5.60;;;;;;;6.62;nan;96936.53;2066146;28;20434;-63
2024/01/26 04:53:13;;;;;;;7.50;4.45;;;;;;;6.61;nan;96934.84;2066569;28;20475;-62
2024/01/26 04:54:14;;;;;;;9.85;5.28;;;;;;;6.60;nan;96944.31;2066684;28;20057;-62
2024/01/26 04:55:15;;;;;;;8.68;5.07;;;;;;;6.61;nan;96942.59;2066737;28;20046;-62
2024/01/26 04:56:16;;;;;;;9.38;5.70;;;;;;;6.61;nan;96938.28;2066280;28;20050;-64
2024/01/26 04:57:17;;;;;;;10.05;5.63;;;;;;;6.61;nan;96940.84;2066768;28;20050;-62